createdAt,value
2019-05-10T00:00:11.136Z,11.90
2019-05-10T00:02:58.524Z,11.90
2019-05-10T00:05:46.663Z,11.90
2019-05-10T00:08:33.679Z,11.80
2019-05-10T00:11:07.204Z,11.70
2019-05-10T00:13:42.339Z,11.60
2019-05-10T00:16:11.755Z,11.60
2019-05-10T00:18:40.923Z,11.60
2019-05-10T00:21:11.140Z,11.50
2019-05-10T00:23:40.283Z,11.40
2019-05-10T00:26:09.514Z,11.40
2019-05-10T00:28:38.673Z,11.40
2019-05-10T00:31:07.829Z,11.50
2019-05-10T00:33:37.063Z,11.50
2019-05-10T00:36:06.223Z,11.50
2019-05-10T00:38:35.484Z,11.50
2019-05-10T00:41:04.710Z,11.60
2019-05-10T00:43:33.857Z,11.60
2019-05-10T00:46:03.055Z,11.60
2019-05-10T00:48:32.262Z,11.60
2019-05-10T00:51:01.430Z,11.60
2019-05-10T00:53:30.639Z,11.60
2019-05-10T00:55:59.782Z,11.60
2019-05-10T00:58:28.934Z,11.60
2019-05-10T01:00:58.104Z,11.60
2019-05-10T01:03:27.249Z,11.60
2019-05-10T01:05:56.436Z,11.50
2019-05-10T01:08:25.580Z,11.50
2019-05-10T01:10:54.754Z,11.40
2019-05-10T01:13:23.972Z,11.40
2019-05-10T01:15:53.178Z,11.40
2019-05-10T01:18:22.336Z,11.30
2019-05-10T01:20:51.512Z,11.30
2019-05-10T01:23:20.646Z,11.30
2019-05-10T01:25:49.818Z,11.30
2019-05-10T01:28:18.960Z,11.30
2019-05-10T01:30:48.348Z,11.20
2019-05-10T01:33:17.496Z,11.20
2019-05-10T01:35:46.642Z,11.20
2019-05-10T01:38:15.789Z,11.10
2019-05-10T01:40:45.027Z,11.10
2019-05-10T01:43:14.204Z,11.00
2019-05-10T01:45:43.377Z,11.00
2019-05-10T01:48:12.577Z,11.00
2019-05-10T01:50:42.427Z,10.90
2019-05-10T01:53:11.572Z,10.90
2019-05-10T01:55:51.663Z,10.80
2019-05-10T01:58:11.567Z,10.80
2019-05-10T02:00:40.755Z,10.70
2019-05-10T02:03:09.898Z,10.70
2019-05-10T02:05:39.078Z,10.60
2019-05-10T02:08:08.228Z,10.60
2019-05-10T02:10:37.396Z,10.50
2019-05-10T02:13:06.552Z,10.40
2019-05-10T02:15:35.768Z,10.30
2019-05-10T02:18:05.301Z,10.30
2019-05-10T02:20:34.454Z,10.30
2019-05-10T02:23:03.626Z,10.30
2019-05-10T02:25:32.859Z,10.20
2019-05-10T02:28:02.030Z,10.20
2019-05-10T02:30:31.256Z,10.20
2019-05-10T02:33:00.487Z,10.20
2019-05-10T02:35:29.716Z,10.20
2019-05-10T02:37:58.939Z,10.20
2019-05-10T02:40:28.078Z,10.20
2019-05-10T02:42:57.274Z,10.20
2019-05-10T02:45:26.475Z,10.20
2019-05-10T02:47:55.663Z,10.20
2019-05-10T02:50:24.793Z,10.20
2019-05-10T02:52:53.965Z,10.20
2019-05-10T02:55:23.279Z,10.10
2019-05-10T02:57:52.639Z,10.10
2019-05-10T03:00:22.025Z,10.00
2019-05-10T03:02:51.236Z,10.00
2019-05-10T03:05:20.394Z,10.00
2019-05-10T03:07:49.633Z,10.00
2019-05-10T03:10:18.776Z,10.00
2019-05-10T03:12:47.954Z,10.00
2019-05-10T03:15:17.086Z,9.90
2019-05-10T03:17:46.239Z,9.90
2019-05-10T03:20:17.185Z,9.90
2019-05-10T03:22:46.395Z,9.90
2019-05-10T03:25:15.558Z,9.80
2019-05-10T03:27:44.771Z,9.80
2019-05-10T03:30:13.954Z,9.80
2019-05-10T03:32:43.270Z,9.70
2019-05-10T03:35:12.499Z,9.70
2019-05-10T03:37:41.896Z,9.70
2019-05-10T03:40:11.226Z,9.60
2019-05-10T03:42:40.456Z,9.50
2019-05-10T03:45:09.599Z,9.50
2019-05-10T03:47:38.759Z,9.60
2019-05-10T03:50:07.995Z,9.50
2019-05-10T03:52:37.409Z,9.50
2019-05-10T03:55:06.579Z,9.50
2019-05-10T03:57:35.737Z,9.50
2019-05-10T04:00:10.179Z,9.40
2019-05-10T04:02:39.319Z,9.20
2019-05-10T04:05:08.471Z,9.10
2019-05-10T04:07:38.761Z,9.00
2019-05-10T04:10:07.982Z,9.00
2019-05-10T04:12:37.147Z,9.00
2019-05-10T04:15:08.117Z,8.90
2019-05-10T04:17:37.283Z,8.90
2019-05-10T04:20:09.452Z,8.90
2019-05-10T04:22:38.682Z,9.00
2019-05-10T04:25:07.943Z,9.10
2019-05-10T04:27:37.205Z,9.20
2019-05-10T04:30:06.936Z,9.20
2019-05-10T04:32:36.079Z,9.30
2019-05-10T04:35:06.388Z,9.40
2019-05-10T04:37:35.551Z,9.60
2019-05-10T04:40:07.863Z,9.70
2019-05-10T04:42:36.997Z,9.90
2019-05-10T04:45:07.407Z,10.00
2019-05-10T04:47:36.573Z,10.20
2019-05-10T04:50:05.711Z,10.40
2019-05-10T04:52:34.962Z,10.50
2019-05-10T04:55:06.404Z,10.70
2019-05-10T04:57:49.981Z,10.80
2019-05-10T05:00:08.255Z,10.90
2019-05-10T05:02:37.605Z,11.00
2019-05-10T05:05:07.793Z,11.00
2019-05-10T05:07:36.969Z,11.10
2019-05-10T05:10:09.097Z,11.20
2019-05-10T05:12:38.262Z,11.30
2019-05-10T05:15:08.876Z,11.30
2019-05-10T05:17:38.042Z,11.30
2019-05-10T05:20:07.193Z,11.40
2019-05-10T05:22:36.422Z,11.50
2019-05-10T05:25:06.800Z,11.70
2019-05-10T05:27:35.944Z,11.80
2019-05-10T05:30:07.102Z,12.10
2019-05-10T05:32:38.757Z,12.50
2019-05-10T05:35:08.123Z,12.80
2019-05-10T05:37:37.282Z,12.80
2019-05-10T05:40:06.875Z,12.80
2019-05-10T05:42:36.061Z,12.70
2019-05-10T05:45:06.530Z,12.70
2019-05-10T05:47:37.480Z,12.90
2019-05-10T05:50:07.642Z,13.10
2019-05-10T05:52:36.835Z,13.10
2019-05-10T05:55:06.863Z,13.20
2019-05-10T05:57:36.099Z,13.20
2019-05-10T06:00:06.735Z,13.40
2019-05-10T06:02:44.408Z,13.80
2019-05-10T06:05:07.053Z,14.00
2019-05-10T06:07:38.100Z,14.40
2019-05-10T06:10:10.416Z,14.60
2019-05-10T06:12:39.123Z,14.00
2019-05-10T06:15:08.285Z,13.80
2019-05-10T06:17:37.425Z,13.80
2019-05-10T06:20:07.639Z,13.60
2019-05-10T06:22:38.093Z,13.40
2019-05-10T06:25:10.020Z,13.30
2019-05-10T06:27:41.226Z,13.40
2019-05-10T06:30:10.581Z,13.40
2019-05-10T06:32:39.783Z,13.40
2019-05-10T06:35:14.248Z,13.40
2019-05-10T06:37:39.824Z,13.30
2019-05-10T06:40:08.997Z,13.40
2019-05-10T06:42:38.289Z,13.50
2019-05-10T06:45:14.453Z,13.50
2019-05-10T06:47:41.862Z,13.70
2019-05-10T06:50:09.209Z,13.70
2019-05-10T06:52:38.366Z,13.80
2019-05-10T06:55:07.670Z,13.70
2019-05-10T06:57:37.882Z,13.70
2019-05-10T07:00:08.125Z,13.70
2019-05-10T07:02:37.470Z,13.60
2019-05-10T07:05:06.652Z,13.00
2019-05-10T07:07:44.270Z,12.90
2019-05-10T07:10:15.704Z,12.90
2019-05-10T07:12:38.958Z,13.10
2019-05-10T07:15:08.343Z,13.50
2019-05-10T07:17:45.182Z,13.70
2019-05-10T07:20:08.411Z,13.80
2019-05-10T07:22:38.726Z,14.00
2019-05-10T07:25:07.959Z,13.80
2019-05-10T07:27:38.590Z,14.00
2019-05-10T07:30:08.129Z,14.00
2019-05-10T07:32:37.368Z,14.10
2019-05-10T07:35:06.989Z,14.20
2019-05-10T07:37:36.150Z,14.40
2019-05-10T07:40:08.316Z,14.50
2019-05-10T07:42:39.773Z,14.50
2019-05-10T07:45:08.486Z,14.20
2019-05-10T07:47:37.649Z,13.50
2019-05-10T07:50:09.786Z,13.40
2019-05-10T07:52:43.342Z,13.30
2019-05-10T07:55:10.640Z,13.30
2019-05-10T07:57:39.620Z,13.30
2019-05-10T08:00:09.330Z,13.30
2019-05-10T08:02:38.676Z,13.40
2019-05-10T08:05:12.348Z,13.40
2019-05-10T08:07:38.968Z,13.30
2019-05-10T08:10:09.426Z,13.20
2019-05-10T08:12:41.311Z,13.20
2019-05-10T08:15:10.104Z,13.40
2019-05-10T08:17:43.307Z,13.40
2019-05-10T08:20:20.354Z,13.30
2019-05-10T08:22:44.882Z,13.50
2019-05-10T08:25:12.737Z,13.80
2019-05-10T08:27:50.267Z,14.60
2019-05-10T08:30:25.058Z,15.40
2019-05-10T08:32:47.987Z,16.00
2019-05-10T08:35:18.866Z,16.20
2019-05-10T08:37:48.132Z,16.60
2019-05-10T08:40:19.703Z,17.00
2019-05-10T08:42:54.420Z,17.80
2019-05-10T08:45:19.219Z,17.80
2019-05-10T08:47:52.955Z,17.30
2019-05-10T08:50:42.197Z,17.30
2019-05-10T08:52:54.389Z,18.40
2019-05-10T08:55:22.678Z,20.90
2019-05-10T09:00:50.635Z,22.70
2019-05-10T09:03:17.875Z,22.60
2019-05-10T09:05:43.282Z,21.10
2019-05-10T09:08:19.543Z,19.50
2019-05-10T09:10:42.921Z,19.30
2019-05-10T09:13:12.811Z,18.90
2019-05-10T09:15:51.196Z,18.30
2019-05-10T09:18:13.403Z,17.70
2019-05-10T09:20:42.689Z,16.90
2019-05-10T09:23:15.383Z,16.40
2019-05-10T09:25:47.107Z,16.00
2019-05-10T09:28:17.960Z,15.90
2019-05-10T09:30:57.561Z,16.20
2019-05-10T09:33:17.981Z,18.00
2019-05-10T09:35:51.769Z,18.90
2019-05-10T09:38:18.013Z,18.80
2019-05-10T09:40:52.945Z,18.80
2019-05-10T09:43:21.122Z,18.20
2019-05-10T09:45:48.937Z,17.80
2019-05-10T09:48:18.125Z,17.10
2019-05-10T09:50:47.478Z,16.40
2019-05-10T09:53:25.470Z,15.70
2019-05-10T09:55:55.282Z,15.50
2019-05-10T09:58:22.232Z,15.40
2019-05-10T10:00:52.644Z,15.50
2019-05-10T10:03:21.878Z,15.50
2019-05-10T10:05:55.299Z,15.30
2019-05-10T10:08:21.977Z,15.00
2019-05-10T10:10:51.125Z,14.60
2019-05-10T10:13:33.960Z,14.10
2019-05-10T10:15:52.465Z,14.00
2019-05-10T10:18:25.316Z,14.80
2019-05-10T10:20:52.940Z,16.30
2019-05-10T10:23:24.607Z,18.10
2019-05-10T10:25:52.955Z,18.90
2019-05-10T10:28:22.890Z,18.90
2019-05-10T10:30:58.822Z,18.40
2019-05-10T10:33:28.082Z,17.40
2019-05-10T10:35:56.502Z,16.60
2019-05-10T10:38:28.696Z,16.10
2019-05-10T10:40:57.634Z,15.70
2019-05-10T10:43:27.314Z,15.40
2019-05-10T10:45:57.884Z,15.00
2019-05-10T10:48:28.445Z,14.90
2019-05-10T10:50:58.958Z,15.00
2019-05-10T10:53:28.405Z,15.70
2019-05-10T10:56:03.621Z,16.10
2019-05-10T10:58:28.616Z,15.90
2019-05-10T11:00:57.831Z,15.70
2019-05-10T11:03:30.198Z,15.70
2019-05-10T11:05:57.981Z,16.10
2019-05-10T11:08:27.246Z,16.90
2019-05-10T11:10:56.490Z,17.10
2019-05-10T11:13:41.423Z,18.30
2019-05-10T11:15:58.829Z,18.80
2019-05-10T11:18:27.687Z,18.10
2019-05-10T11:20:56.969Z,17.30
2019-05-10T11:23:34.086Z,16.90
2019-05-10T11:25:57.106Z,16.70
2019-05-10T11:28:30.110Z,16.40
2019-05-10T11:30:57.188Z,15.90
2019-05-10T11:33:30.173Z,15.60
2019-05-10T11:36:02.359Z,15.40
2019-05-10T11:38:28.464Z,15.60
2019-05-10T11:40:57.705Z,15.60
2019-05-10T11:43:27.178Z,15.40
2019-05-10T11:45:56.578Z,15.60
2019-05-10T11:48:29.020Z,15.60
2019-05-10T11:50:56.765Z,15.60
2019-05-10T11:53:26.032Z,15.80
2019-05-10T11:55:55.185Z,16.10
2019-05-10T11:58:24.371Z,16.80
2019-05-10T12:00:59.216Z,17.50
2019-05-10T12:03:24.508Z,17.40
2019-05-10T12:08:24.767Z,17.60
2019-05-10T12:11:07.620Z,19.50
2019-05-10T12:13:25.271Z,19.70
2019-05-10T12:15:54.784Z,18.90
2019-05-10T12:23:31.102Z,17.50
2019-05-10T12:26:06.270Z,17.40
2019-05-10T12:26:06.532Z,18.30
2019-05-10T12:26:21.452Z,17.60
2019-05-10T12:27:07.531Z,17.50
2019-05-10T12:28:29.987Z,17.90
2019-05-10T12:31:01.311Z,17.50
2019-05-10T12:33:31.634Z,18.60
2019-05-10T12:36:00.833Z,20.10
2019-05-10T12:38:31.838Z,20.10
2019-05-10T12:41:01.407Z,20.50
2019-05-10T12:43:31.694Z,20.40
2019-05-10T12:46:00.908Z,19.50
2019-05-10T12:48:31.713Z,19.30
2019-05-10T12:51:08.231Z,19.80
2019-05-10T12:53:36.684Z,21.80
2019-05-10T12:56:03.771Z,22.40
2019-05-10T12:58:32.947Z,21.70
2019-05-10T13:01:02.241Z,20.70
2019-05-10T13:03:33.728Z,19.40
2019-05-10T13:06:02.279Z,18.40
2019-05-10T13:08:31.546Z,17.80
2019-05-10T13:11:00.802Z,17.70
2019-05-10T13:13:30.337Z,18.10
2019-05-10T13:16:07.019Z,20.10
2019-05-10T13:21:01.401Z,24.10
2019-05-10T13:23:30.962Z,25.30
2019-05-10T13:26:00.154Z,25.30
2019-05-10T13:28:29.379Z,26.50
2019-05-10T13:31:05.105Z,26.00
2019-05-10T13:33:40.770Z,26.20
2019-05-10T13:36:02.462Z,25.70
2019-05-10T13:38:31.617Z,25.70
2019-05-10T13:41:00.794Z,26.10
2019-05-10T13:43:29.967Z,25.30
2019-05-10T13:45:59.122Z,25.30
2019-05-10T13:48:28.306Z,25.50
2019-05-10T13:50:58.690Z,25.80
2019-05-10T13:53:27.956Z,25.90
2019-05-10T13:55:57.108Z,25.90
2019-05-10T13:58:26.293Z,26.10
2019-05-10T14:00:55.528Z,26.20
2019-05-10T14:03:24.828Z,26.60
2019-05-10T14:05:53.998Z,26.00
2019-05-10T14:08:23.148Z,24.10
2019-05-10T14:10:55.857Z,22.40
2019-05-10T14:13:23.180Z,21.30
2019-05-10T14:15:52.368Z,20.80
2019-05-10T14:18:21.547Z,20.50
2019-05-10T14:20:50.802Z,20.60
2019-05-10T14:23:20.250Z,20.80
2019-05-10T14:25:49.468Z,21.50
2019-05-10T14:28:18.642Z,21.80
2019-05-10T14:30:56.640Z,21.30
2019-05-10T14:33:18.733Z,20.70
2019-05-10T14:35:47.954Z,20.30
2019-05-10T14:38:17.160Z,19.90
2019-05-10T14:40:46.333Z,19.90
2019-05-10T14:43:15.495Z,21.10
2019-05-10T14:45:44.943Z,22.20
2019-05-10T14:48:14.174Z,22.20
2019-05-10T14:50:46.472Z,22.90
2019-05-10T14:53:14.284Z,24.30
2019-05-10T14:55:43.512Z,25.30
2019-05-10T14:58:12.763Z,24.60
2019-05-10T15:00:42.295Z,23.10
2019-05-10T15:03:11.486Z,21.90
2019-05-10T15:05:40.784Z,21.10
2019-05-10T15:08:09.999Z,20.40
2019-05-10T15:10:40.159Z,19.80
2019-05-10T15:13:10.105Z,19.70
2019-05-10T15:15:41.068Z,19.70
2019-05-10T15:18:12.978Z,19.70
2019-05-10T15:20:42.214Z,19.70
2019-05-10T15:23:11.511Z,20.00
2019-05-10T15:25:55.825Z,20.30
2019-05-10T15:28:11.794Z,20.70
2019-05-10T15:30:45.998Z,20.80
2019-05-10T15:33:12.121Z,20.60
2019-05-10T15:35:45.735Z,19.90
2019-05-10T15:38:12.379Z,19.50
2019-05-10T15:40:44.487Z,19.20
2019-05-10T15:43:16.830Z,19.00
2019-05-10T15:45:45.962Z,18.80
2019-05-10T15:48:14.305Z,18.90
2019-05-10T15:50:43.497Z,18.40
2019-05-10T15:53:19.537Z,17.80
2019-05-10T15:55:48.670Z,17.50
2019-05-10T15:58:17.860Z,17.40
2019-05-10T16:00:47.143Z,17.20
2019-05-10T16:03:16.380Z,16.80
2019-05-10T16:05:58.844Z,16.70
2019-05-10T16:08:16.699Z,17.00
2019-05-10T16:10:47.059Z,17.20
2019-05-10T16:13:23.587Z,16.80
2019-05-10T16:15:51.564Z,16.50
2019-05-10T16:18:19.155Z,16.20
2019-05-10T16:20:48.332Z,15.80
2019-05-10T16:23:17.571Z,15.80
2019-05-10T16:25:48.462Z,15.80
2019-05-10T16:28:20.810Z,15.90
2019-05-10T16:30:48.500Z,15.90
2019-05-10T16:33:18.231Z,15.80
2019-05-10T16:35:49.697Z,15.70
2019-05-10T16:38:18.633Z,15.70
2019-05-10T16:40:57.138Z,15.90
2019-05-10T16:43:23.993Z,16.10
2019-05-10T16:45:49.532Z,16.20
2019-05-10T16:48:18.762Z,16.10
2019-05-10T16:50:47.926Z,16.10
2019-05-10T16:53:17.097Z,16.10
2019-05-10T16:55:47.871Z,16.10
2019-05-10T16:58:17.958Z,16.00
2019-05-10T17:00:48.016Z,16.00
2019-05-10T17:03:18.301Z,16.00
2019-05-10T17:05:53.575Z,16.00
2019-05-10T17:08:19.189Z,16.00
2019-05-10T17:10:48.368Z,16.10
2019-05-10T17:13:17.543Z,16.10
2019-05-10T17:15:46.818Z,16.20
2019-05-10T17:18:19.837Z,16.10
2019-05-10T17:20:50.742Z,16.00
2019-05-10T17:23:17.952Z,15.80
2019-05-10T17:25:47.101Z,15.80
2019-05-10T17:28:16.308Z,15.90
2019-05-10T17:30:45.578Z,15.80
2019-05-10T17:33:14.763Z,15.70
2019-05-10T17:35:44.273Z,15.60
2019-05-10T17:38:14.849Z,15.50
2019-05-10T17:40:47.928Z,15.50
2019-05-10T17:43:20.704Z,15.30
2019-05-10T17:45:47.488Z,15.30
2019-05-10T17:48:16.828Z,15.30
2019-05-10T17:50:46.138Z,15.30
2019-05-10T17:53:15.407Z,15.40
2019-05-10T17:55:49.466Z,15.30
2019-05-10T17:58:17.160Z,15.30
2019-05-10T18:00:46.665Z,15.30
2019-05-10T18:03:15.855Z,15.30
2019-05-10T18:05:46.790Z,15.30
2019-05-10T18:08:15.925Z,15.30
2019-05-10T18:10:45.091Z,15.20
2019-05-10T18:13:14.373Z,15.10
2019-05-10T18:15:43.773Z,15.00
2019-05-10T18:18:13.922Z,14.90
2019-05-10T18:20:44.563Z,14.80
2019-05-10T18:23:20.182Z,14.70
2019-05-10T18:25:45.002Z,14.70
2019-05-10T18:28:17.147Z,14.60
2019-05-10T18:30:45.057Z,14.50
2019-05-10T18:33:14.290Z,14.40
2019-05-10T18:35:47.362Z,14.30
2019-05-10T18:38:16.256Z,14.30
2019-05-10T18:40:45.486Z,14.30
2019-05-10T18:43:14.670Z,14.30
2019-05-10T18:45:43.892Z,14.20
2019-05-10T18:48:13.083Z,14.10
2019-05-10T18:50:45.449Z,14.10
2019-05-10T18:53:13.269Z,14.00
2019-05-10T18:55:42.738Z,14.00
2019-05-10T18:58:12.214Z,14.00
2019-05-10T19:00:41.368Z,14.10
2019-05-10T19:03:10.517Z,14.10
2019-05-10T19:05:39.921Z,14.10
2019-05-10T19:08:09.083Z,14.00
2019-05-10T19:10:38.460Z,13.90
2019-05-10T19:13:08.238Z,13.90
2019-05-10T19:15:37.909Z,13.90
2019-05-10T19:18:07.067Z,13.90
2019-05-10T19:20:36.239Z,13.80
2019-05-10T19:23:05.693Z,13.70
2019-05-10T19:25:37.659Z,13.60
2019-05-10T19:28:05.765Z,13.50
2019-05-10T19:30:34.967Z,13.50
2019-05-10T19:33:04.239Z,13.40
2019-05-10T19:35:36.301Z,13.30
2019-05-10T19:38:05.988Z,13.20
2019-05-10T19:40:35.226Z,13.10
2019-05-10T19:43:04.459Z,13.10
2019-05-10T19:45:33.765Z,13.10
2019-05-10T19:48:05.712Z,13.00
2019-05-10T19:50:33.865Z,13.00
2019-05-10T19:53:05.488Z,13.00
2019-05-10T19:55:34.639Z,13.00
2019-05-10T19:58:04.232Z,12.90
2019-05-10T20:00:34.434Z,12.90
2019-05-10T20:03:04.652Z,12.80
2019-05-10T20:05:33.874Z,12.90
2019-05-10T20:08:03.140Z,12.90
2019-05-10T20:10:32.409Z,12.90
2019-05-10T20:13:01.713Z,12.90
2019-05-10T20:15:31.005Z,13.00
2019-05-10T20:18:00.472Z,13.00
2019-05-10T20:20:29.785Z,12.90
2019-05-10T20:22:58.994Z,12.90
2019-05-10T20:25:28.219Z,13.00
2019-05-10T20:27:57.502Z,13.00
2019-05-10T20:30:26.658Z,13.10
2019-05-10T20:32:55.834Z,13.20
2019-05-10T20:35:24.975Z,13.20
2019-05-10T20:38:01.897Z,13.30
2019-05-10T20:40:26.783Z,13.40
2019-05-10T20:42:56.027Z,13.30
2019-05-10T20:45:25.175Z,13.20
2019-05-10T20:47:54.337Z,13.10
2019-05-10T20:50:23.516Z,13.00
2019-05-10T20:52:52.817Z,13.00
2019-05-10T20:55:21.996Z,13.00
2019-05-10T20:57:51.287Z,13.00
2019-05-10T21:00:23.944Z,13.00
2019-05-10T21:02:51.463Z,13.00
2019-05-10T21:05:20.619Z,13.00
2019-05-10T21:07:49.859Z,13.00
2019-05-10T21:10:19.076Z,13.10
2019-05-10T21:12:49.402Z,13.10
2019-05-10T21:15:18.698Z,13.10
2019-05-10T21:17:47.855Z,13.20
2019-05-10T21:20:17.019Z,13.20
2019-05-10T21:22:46.228Z,13.20
2019-05-10T21:25:15.394Z,13.10
2019-05-10T21:27:44.548Z,13.20
2019-05-10T21:30:13.729Z,13.10
2019-05-10T21:32:42.959Z,13.20
2019-05-10T21:35:12.159Z,13.30
2019-05-10T21:37:41.320Z,13.30
2019-05-10T21:40:10.473Z,13.20
2019-05-10T21:42:39.659Z,13.20
2019-05-10T21:45:08.932Z,13.20
2019-05-10T21:47:50.581Z,13.20
2019-05-10T21:50:09.095Z,13.20
2019-05-10T21:52:38.337Z,13.10
2019-05-10T21:55:07.499Z,13.20
2019-05-10T21:57:36.814Z,13.20
2019-05-10T22:00:07.756Z,13.30
2019-05-10T22:02:38.601Z,13.30
2019-05-10T22:05:08.063Z,13.20
2019-05-10T22:07:38.500Z,13.20
2019-05-10T22:10:08.005Z,13.10
2019-05-10T22:12:37.266Z,13.20
2019-05-10T22:15:07.909Z,13.20
2019-05-10T22:17:37.171Z,13.20
2019-05-10T22:20:06.622Z,13.20
2019-05-10T22:22:35.864Z,13.10
2019-05-10T22:25:06.292Z,13.00
2019-05-10T22:27:35.484Z,13.00
2019-05-10T22:30:12.239Z,13.00
2019-05-10T22:32:40.110Z,12.90
2019-05-10T22:35:09.391Z,12.80
2019-05-10T22:37:38.669Z,12.70
2019-05-10T22:40:07.937Z,12.70
2019-05-10T22:42:37.190Z,12.70
2019-05-10T22:45:06.555Z,12.70
2019-05-10T22:47:35.815Z,12.70
2019-05-10T22:50:06.744Z,12.60
2019-05-10T22:52:36.163Z,12.70
2019-05-10T22:55:06.045Z,12.60
2019-05-10T22:57:35.318Z,12.60
2019-05-10T23:00:06.077Z,12.50
2019-05-10T23:02:36.917Z,12.50
2019-05-10T23:05:06.219Z,12.60
2019-05-10T23:07:35.560Z,12.70
2019-05-10T23:10:05.195Z,12.70
2019-05-10T23:12:34.461Z,12.70
2019-05-10T23:15:05.495Z,12.70
2019-05-10T23:17:34.685Z,12.70
2019-05-10T23:20:04.233Z,12.60
2019-05-10T23:22:33.497Z,12.70
2019-05-10T23:25:04.511Z,12.60
2019-05-10T23:27:33.913Z,12.70
2019-05-10T23:30:03.257Z,12.70
2019-05-10T23:32:32.513Z,12.70
2019-05-10T23:35:01.789Z,12.60
2019-05-10T23:37:31.055Z,12.50
2019-05-10T23:40:00.358Z,12.40
2019-05-10T23:42:29.613Z,12.40
2019-05-10T23:44:58.879Z,12.40
2019-05-10T23:47:30.925Z,12.40
2019-05-10T23:50:00.221Z,12.30
2019-05-10T23:52:29.474Z,12.30
2019-05-10T23:54:58.681Z,12.40
2019-05-10T23:57:27.947Z,12.40
2019-05-10T23:59:57.151Z,12.40
